createdAt,value
2023-06-25T00:00:21.190Z,13.78
2023-06-25T00:05:44.367Z,13.74
2023-06-25T00:10:47.597Z,13.71
2023-06-25T00:15:50.794Z,13.67
2023-06-25T00:20:55.050Z,13.65
2023-06-25T00:25:58.234Z,13.62
2023-06-25T00:31:01.394Z,13.59
2023-06-25T00:36:09.486Z,13.55
2023-06-25T00:41:13.413Z,13.47
2023-06-25T00:46:17.289Z,13.38
2023-06-25T00:51:23.361Z,13.32
2023-06-25T00:56:32.364Z,13.25
2023-06-25T01:01:50.004Z,13.14
2023-06-25T01:06:57.472Z,13.06
2023-06-25T01:12:02.183Z,13.01
2023-06-25T01:17:06.806Z,12.97
2023-06-25T01:22:11.730Z,12.92
2023-06-25T01:27:14.793Z,12.87
2023-06-25T01:32:19.276Z,12.76
2023-06-25T01:37:22.417Z,12.61
2023-06-25T01:42:25.528Z,12.53
2023-06-25T01:47:28.605Z,12.53
2023-06-25T01:52:31.640Z,12.50
2023-06-25T01:57:34.749Z,12.45
2023-06-25T02:02:37.817Z,12.39
2023-06-25T02:07:40.984Z,12.40
2023-06-25T02:12:44.193Z,12.47
2023-06-25T02:17:47.328Z,12.49
2023-06-25T02:22:51.622Z,12.43
2023-06-25T02:27:54.834Z,12.35
2023-06-25T02:32:58.069Z,12.40
2023-06-25T02:38:01.379Z,12.50
2023-06-25T02:43:04.571Z,12.62
2023-06-25T02:48:07.783Z,12.80
2023-06-25T02:53:11.710Z,12.99
2023-06-25T02:58:14.823Z,13.21
2023-06-25T03:03:17.962Z,13.49
2023-06-25T03:08:21.316Z,13.70
2023-06-25T03:13:24.353Z,13.86
2023-06-25T03:18:27.668Z,14.02
2023-06-25T03:23:30.675Z,14.24
2023-06-25T03:28:33.680Z,14.46
2023-06-25T03:33:36.794Z,14.68
2023-06-25T03:38:39.908Z,14.92
2023-06-25T03:43:43.019Z,15.23
2023-06-25T03:48:46.117Z,15.51
2023-06-25T03:53:49.330Z,15.84
2023-06-25T03:58:52.551Z,16.52
2023-06-25T04:03:55.726Z,17.52
2023-06-25T04:08:58.871Z,18.33
2023-06-25T04:14:01.975Z,19.13
2023-06-25T04:19:05.617Z,19.56
2023-06-25T04:24:08.805Z,20.10
2023-06-25T04:29:12.165Z,21.30
2023-06-25T04:34:15.436Z,23.04
2023-06-25T04:39:18.546Z,24.57
2023-06-25T04:44:21.759Z,26.18
2023-06-25T04:49:25.175Z,26.98
2023-06-25T04:54:28.309Z,27.06
2023-06-25T04:59:31.392Z,27.07
2023-06-25T05:04:34.396Z,27.17
2023-06-25T05:09:37.399Z,27.38
2023-06-25T05:14:40.515Z,27.85
2023-06-25T05:19:43.722Z,28.34
2023-06-25T05:24:46.906Z,28.67
2023-06-25T05:29:50.061Z,29.02
2023-06-25T05:34:53.170Z,29.27
2023-06-25T05:39:56.265Z,29.49
2023-06-25T05:44:59.374Z,29.61
2023-06-25T05:50:02.690Z,30.05
2023-06-25T05:55:06.333Z,30.11
2023-06-25T06:00:10.354Z,29.73
2023-06-25T06:05:13.663Z,29.73
2023-06-25T06:10:17.685Z,30.04
2023-06-25T06:15:21.299Z,30.33
2023-06-25T06:20:24.409Z,30.53
2023-06-25T06:25:27.538Z,30.35
2023-06-25T06:30:30.793Z,30.13
2023-06-25T06:35:34.068Z,30.24
2023-06-25T06:40:37.267Z,30.89
2023-06-25T06:45:40.493Z,30.72
2023-06-25T06:50:43.887Z,30.28
2023-06-25T06:55:47.000Z,29.82
2023-06-25T07:00:50.207Z,29.89
2023-06-25T07:05:53.386Z,30.21
2023-06-25T07:10:56.635Z,30.68
2023-06-25T07:15:59.843Z,30.93
2023-06-25T07:21:03.671Z,31.49
2023-06-25T07:26:07.206Z,31.93
2023-06-25T07:31:10.422Z,32.19
2023-06-25T07:36:13.610Z,31.76
2023-06-25T07:41:16.818Z,31.52
2023-06-25T07:46:19.986Z,31.54
2023-06-25T07:51:23.241Z,31.46
2023-06-25T07:56:26.353Z,31.59
2023-06-25T08:01:30.581Z,31.65
2023-06-25T08:06:34.000Z,31.46
2023-06-25T08:11:37.545Z,31.40
2023-06-25T08:16:40.739Z,31.44
2023-06-25T08:21:43.945Z,31.42
2023-06-25T08:26:47.254Z,31.21
2023-06-25T08:31:51.868Z,31.10
2023-06-25T08:36:57.186Z,31.10
2023-06-25T08:42:01.011Z,31.15
2023-06-25T08:47:08.268Z,30.98
2023-06-25T08:52:12.649Z,30.89
2023-06-25T08:57:15.963Z,30.52
2023-06-25T09:02:19.670Z,29.64
2023-06-25T09:07:22.898Z,28.84
2023-06-25T09:12:26.706Z,28.21
2023-06-25T09:17:29.826Z,27.54
2023-06-25T09:22:33.748Z,26.94
2023-06-25T09:27:36.747Z,26.39
2023-06-25T09:32:51.021Z,26.08
2023-06-25T09:37:54.709Z,26.21
2023-06-25T09:42:59.484Z,26.45
2023-06-25T09:48:02.990Z,26.67
2023-06-25T09:53:17.690Z,26.70
2023-06-25T09:58:21.688Z,26.68
2023-06-25T10:03:25.009Z,26.75
2023-06-25T10:08:28.244Z,26.92
2023-06-25T10:13:31.561Z,27.02
2023-06-25T10:18:43.112Z,27.24
2023-06-25T10:23:56.524Z,27.39
2023-06-25T10:29:07.572Z,27.54
2023-06-25T10:34:12.061Z,27.56
2023-06-25T10:39:15.267Z,27.57
2023-06-25T10:44:18.484Z,27.30
2023-06-25T10:49:21.800Z,26.50
2023-06-25T10:54:25.112Z,25.77
2023-06-25T10:59:28.114Z,25.35
2023-06-25T11:04:31.223Z,25.21
2023-06-25T11:09:34.333Z,25.63
2023-06-25T11:14:37.544Z,26.27
2023-06-25T11:19:40.648Z,26.87
2023-06-25T11:24:43.764Z,27.40
2023-06-25T11:29:48.200Z,27.88
2023-06-25T11:34:51.306Z,28.19
2023-06-25T11:39:54.420Z,28.38
2023-06-25T11:45:05.713Z,28.52
2023-06-25T11:50:16.711Z,28.12
2023-06-25T11:55:22.337Z,27.81
2023-06-25T12:00:25.387Z,28.09
2023-06-25T12:05:28.677Z,28.37
2023-06-25T12:10:31.714Z,28.16
2023-06-25T12:15:35.152Z,27.77
2023-06-25T12:20:38.756Z,27.82
2023-06-25T12:25:41.748Z,27.90
2023-06-25T12:30:44.757Z,27.92
2023-06-25T12:35:47.867Z,27.97
2023-06-25T12:40:58.298Z,27.84
2023-06-25T12:46:01.351Z,27.84
2023-06-25T12:51:04.669Z,27.75
2023-06-25T12:56:07.787Z,27.60
2023-06-25T13:01:15.364Z,27.85
2023-06-25T13:06:19.741Z,27.88
2023-06-25T13:11:22.758Z,27.87
2023-06-25T13:16:25.745Z,27.95
2023-06-25T13:21:28.753Z,28.10
2023-06-25T13:26:31.761Z,28.18
2023-06-25T13:31:35.264Z,28.20
2023-06-25T13:36:38.626Z,28.19
2023-06-25T13:41:41.692Z,28.15
2023-06-25T13:46:45.063Z,27.89
2023-06-25T13:51:48.223Z,27.93
2023-06-25T13:56:55.245Z,27.93
2023-06-25T14:01:59.969Z,27.89
2023-06-25T14:07:03.002Z,27.79
2023-06-25T14:12:06.392Z,27.71
2023-06-25T14:17:09.505Z,27.82
2023-06-25T14:22:12.518Z,28.02
2023-06-25T14:27:15.720Z,28.00
2023-06-25T14:32:19.400Z,28.07
2023-06-25T14:37:22.560Z,28.21
2023-06-25T14:42:25.866Z,27.93
2023-06-25T14:47:28.835Z,27.60
2023-06-25T14:52:31.848Z,27.42
2023-06-25T14:57:34.894Z,27.26
2023-06-25T15:02:38.223Z,27.16
2023-06-25T15:07:41.525Z,27.12
2023-06-25T15:12:44.626Z,27.09
2023-06-25T15:17:48.499Z,27.15
2023-06-25T15:22:51.671Z,27.25
2023-06-25T15:27:54.876Z,27.15
2023-06-25T15:32:58.035Z,26.94
2023-06-25T15:38:01.412Z,26.49
2023-06-25T15:43:04.513Z,26.11
2023-06-25T15:48:08.316Z,25.88
2023-06-25T15:53:11.351Z,25.72
2023-06-25T15:58:17.429Z,25.60
2023-06-25T16:03:20.669Z,25.49
2023-06-25T16:08:23.954Z,25.34
2023-06-25T16:13:27.066Z,25.07
2023-06-25T16:18:31.699Z,24.68
2023-06-25T16:23:34.811Z,24.35
2023-06-25T16:28:39.867Z,24.13
2023-06-25T16:33:43.181Z,24.00
2023-06-25T16:38:46.410Z,24.07
2023-06-25T16:43:49.909Z,24.33
2023-06-25T16:48:52.921Z,24.48
2023-06-25T16:54:00.636Z,24.46
2023-06-25T16:59:04.063Z,24.41
2023-06-25T17:04:07.287Z,24.41
2023-06-25T17:09:10.379Z,24.39
2023-06-25T17:14:13.601Z,24.34
2023-06-25T17:19:17.245Z,24.31
2023-06-25T17:24:20.314Z,24.17
2023-06-25T17:29:23.636Z,24.04
2023-06-25T17:34:26.738Z,23.90
2023-06-25T17:39:30.052Z,23.80
2023-06-25T17:44:33.672Z,23.68
2023-06-25T17:49:36.799Z,23.56
2023-06-25T17:54:39.990Z,23.50
2023-06-25T17:59:43.206Z,23.40
2023-06-25T18:04:46.326Z,23.30
2023-06-25T18:09:49.430Z,23.18
2023-06-25T18:14:52.852Z,23.05
2023-06-25T18:19:55.959Z,22.92
2023-06-25T18:24:59.162Z,22.80
2023-06-25T18:30:02.396Z,22.66
2023-06-25T18:35:05.906Z,22.53
2023-06-25T18:40:09.731Z,22.38
2023-06-25T18:45:13.648Z,22.23
2023-06-25T18:50:19.242Z,22.06
2023-06-25T18:55:22.626Z,21.91
2023-06-25T19:00:25.856Z,21.77
2023-06-25T19:05:29.148Z,21.62
2023-06-25T19:10:32.312Z,21.45
2023-06-25T19:15:35.409Z,21.27
2023-06-25T19:20:41.141Z,21.07
2023-06-25T19:25:44.245Z,20.87
2023-06-25T19:30:47.500Z,20.67
2023-06-25T19:35:51.006Z,20.48
2023-06-25T19:40:54.124Z,20.30
2023-06-25T19:45:57.315Z,20.13
2023-06-25T19:51:00.521Z,19.96
2023-06-25T19:56:03.924Z,19.80
2023-06-25T20:01:07.442Z,19.61
2023-06-25T20:06:10.665Z,19.41
2023-06-25T20:11:13.969Z,19.20
2023-06-25T20:16:17.385Z,18.98
2023-06-25T20:21:20.514Z,18.79
2023-06-25T20:26:25.245Z,18.61
2023-06-25T20:31:28.568Z,18.43
2023-06-25T20:36:31.869Z,18.30
2023-06-25T20:41:35.188Z,18.17
2023-06-25T20:46:38.606Z,18.05
2023-06-25T20:51:41.818Z,17.95
2023-06-25T20:56:44.922Z,17.84
2023-06-25T21:01:48.237Z,17.71
2023-06-25T21:06:51.358Z,17.62
2023-06-25T21:11:54.462Z,17.55
2023-06-25T21:16:57.866Z,17.46
2023-06-25T21:22:00.989Z,17.37
2023-06-25T21:27:04.321Z,17.28
2023-06-25T21:32:08.131Z,17.20
2023-06-25T21:37:11.235Z,17.10
2023-06-25T21:42:14.363Z,16.99
2023-06-25T21:47:17.514Z,16.91
2023-06-25T21:52:20.763Z,16.87
2023-06-25T21:57:23.903Z,16.84
2023-06-25T22:02:27.191Z,16.81
2023-06-25T22:07:30.621Z,16.73
2023-06-25T22:12:34.010Z,16.61
2023-06-25T22:17:39.166Z,16.47
2023-06-25T22:22:42.386Z,16.32
2023-06-25T22:27:51.955Z,16.18
2023-06-25T22:32:55.814Z,16.06
2023-06-25T22:37:59.084Z,15.94
2023-06-25T22:43:02.678Z,15.82
2023-06-25T22:48:06.136Z,15.72
2023-06-25T22:53:10.898Z,15.64
2023-06-25T22:58:14.084Z,15.56
2023-06-25T23:03:17.354Z,15.47
2023-06-25T23:08:20.705Z,15.39
2023-06-25T23:13:23.817Z,15.31
2023-06-25T23:18:26.983Z,15.25
2023-06-25T23:23:32.692Z,15.17
2023-06-25T23:28:36.416Z,15.07
2023-06-25T23:33:39.421Z,14.94
2023-06-25T23:38:42.439Z,14.81
2023-06-25T23:43:45.544Z,14.68
2023-06-25T23:48:48.552Z,14.57
2023-06-25T23:53:51.552Z,14.45
2023-06-25T23:58:54.565Z,14.35
